Time;durP1;ratioP1;P1;durP2;ratioP2;P2;SDS_P1;SDS_P2;PMS_P1;PMS_P2;Temp;Humidity;BMP_temperature;BMP_pressure;BME280_temperature;BME280_humidity;BME280_pressure;Samples;Min_cycle;Max_cycle;Signal;HPM_P1;HPM_P2
2022/02/21 00:04:18;;;;;;;4.57;0.95;;;;;;;9.76;81.77;98477.69;10314455;28;20056;-64
2022/02/21 00:09:19;;;;;;;5.15;1.25;;;;;;;9.74;81.36;98455.72;10309353;28;20044;-63
2022/02/21 00:14:21;;;;;;;3.92;1.45;;;;;;;9.81;81.02;98443.47;10319868;28;20148;-62
2022/02/21 00:19:22;;;;;;;3.08;0.80;;;;;;;9.84;80.28;98434.34;10311198;28;20124;-62
2022/02/21 00:24:23;;;;;;;4.05;0.85;;;;;;;9.86;80.61;98430.53;10308487;28;20046;-63
2022/02/21 00:29:25;;;;;;;2.30;0.90;;;;;;;9.84;80.61;98408.59;10311238;28;20193;-62
2022/02/21 00:34:26;;;;;;;3.00;0.60;;;;;;;9.86;80.57;98382.69;10315713;28;20053;-62
2022/02/21 00:39:28;;;;;;;4.35;0.95;;;;;;;9.89;80.52;98387.69;10314311;28;20065;-62
2022/02/21 00:44:29;;;;;;;2.25;0.57;;;;;;;9.85;80.38;98353.63;10317199;28;20481;-63
2022/02/21 00:49:32;;;;;;;2.75;0.50;;;;;;;9.82;80.60;98344.16;10309640;28;20050;-62
2022/02/21 00:54:33;;;;;;;2.33;0.70;;;;;;;9.87;80.89;98336.50;10318499;28;20180;-62
2022/02/21 00:59:35;;;;;;;2.72;0.77;;;;;;;9.81;81.37;98317.75;10311902;28;20102;-63
2022/02/21 01:04:36;;;;;;;2.15;0.57;;;;;;;9.84;81.61;98309.44;10308270;28;20054;-62
2022/02/21 01:09:37;;;;;;;1.80;0.47;;;;;;;9.82;81.24;98290.19;10309800;28;20145;-62
2022/02/21 01:14:39;;;;;;;2.28;1.05;;;;;;;9.86;81.39;98308.28;10309611;28;20046;-62
2022/02/21 01:19:40;;;;;;;2.42;0.52;;;;;;;9.80;82.14;98274.38;10309354;28;20054;-62
2022/02/21 01:24:42;;;;;;;2.92;0.65;;;;;;;9.73;86.05;98289.38;10326076;28;20156;-63
2022/02/21 01:29:43;;;;;;;2.00;0.85;;;;;;;9.58;86.85;98298.97;10312857;28;20058;-61
2022/02/21 01:34:45;;;;;;;1.67;0.57;;;;;;;9.50;89.98;98388.28;10309527;28;20056;-62
2022/02/21 01:39:46;;;;;;;2.13;0.63;;;;;;;9.01;88.20;98430.56;10311991;28;20042;-63
2022/02/21 01:44:49;;;;;;;3.58;0.70;;;;;;;8.53;92.58;98424.81;10312499;28;20049;-63
2022/02/21 01:49:51;;;;;;;2.70;0.60;;;;;;;8.61;84.84;98432.00;10311326;28;20463;-63
2022/02/21 01:54:53;;;;;;;2.03;0.50;;;;;;;8.55;79.20;98424.66;10309778;28;20046;-63
2022/02/21 01:59:55;;;;;;;1.95;0.30;;;;;;;8.65;79.74;98446.63;10321345;28;20240;-63
2022/02/21 02:04:56;;;;;;;2.15;0.32;;;;;;;8.51;79.30;98479.81;10308884;28;20155;-63
2022/02/21 02:09:58;;;;;;;2.17;0.30;;;;;;;8.12;75.50;98486.25;10312060;28;20662;-65
2022/02/21 02:14:59;;;;;;;1.60;0.50;;;;;;;8.10;74.51;98498.81;10314260;28;20053;-61
2022/02/21 02:20:01;;;;;;;3.13;0.50;;;;;;;8.25;75.01;98472.59;10309464;28;20042;-62
2022/02/21 02:25:03;;;;;;;1.52;0.13;;;;;;;8.19;71.54;98475.88;10317284;28;20129;-62
2022/02/21 02:30:05;;;;;;;1.15;0.50;;;;;;;8.07;69.39;98482.38;10317902;28;20050;-62
2022/02/21 02:35:07;;;;;;;0.88;0.20;;;;;;;8.10;68.79;98495.34;10314226;28;20050;-63
2022/02/21 02:40:09;;;;;;;0.95;0.30;;;;;;;7.87;68.78;98522.25;10316685;28;20060;-62
2022/02/21 02:45:10;;;;;;;1.88;0.40;;;;;;;7.71;67.20;98517.59;10320340;28;20054;-61
2022/02/21 02:50:12;;;;;;;1.05;0.30;;;;;;;7.49;69.57;98499.47;10314473;28;20058;-61
2022/02/21 02:55:13;;;;;;;2.35;0.22;;;;;;;7.41;71.05;98508.97;10318428;28;20057;-64
2022/02/21 03:00:17;;;;;;;0.75;0.20;;;;;;;7.39;70.92;98475.69;10317984;28;20125;-63
2022/02/21 03:05:19;;;;;;;3.63;0.30;;;;;;;7.42;70.54;98521.22;10314863;28;20050;-62
2022/02/21 03:10:20;;;;;;;1.13;0.30;;;;;;;7.42;71.39;98517.75;10316861;28;20153;-63
2022/02/21 03:15:22;;;;;;;2.65;0.40;;;;;;;7.42;69.90;98523.06;10317119;28;20138;-62
2022/02/21 03:20:23;;;;;;;0.98;0.30;;;;;;;7.14;71.15;98511.59;10321056;28;20043;-62
2022/02/21 03:25:24;;;;;;;1.90;0.30;;;;;;;7.33;71.88;98551.22;10308281;28;20056;-62
2022/02/21 03:30:26;;;;;;;2.53;0.50;;;;;;;7.14;71.22;98573.28;10314885;28;20041;-62
2022/02/21 03:35:28;;;;;;;1.90;0.40;;;;;;;7.00;69.70;98561.34;10313321;28;20149;-62
2022/02/21 03:40:30;;;;;;;1.73;0.63;;;;;;;6.98;67.82;98573.03;10318052;28;20166;-64
2022/02/21 03:45:32;;;;;;;2.20;0.43;;;;;;;6.83;64.64;98570.84;10314375;28;20058;-61
2022/02/21 03:50:33;;;;;;;1.10;0.28;;;;;;;6.87;63.10;98605.75;10324309;28;20788;-61
2022/02/21 03:55:35;;;;;;;2.20;0.50;;;;;;;6.79;61.76;98601.16;10312930;28;20050;-61
2022/02/21 04:00:36;;;;;;;1.90;0.35;;;;;;;6.53;61.85;98603.50;10316075;28;20057;-62
2022/02/21 04:05:38;;;;;;;2.90;0.40;;;;;;;6.36;62.50;98620.91;10313415;28;20132;-61
2022/02/21 04:10:39;;;;;;;1.20;0.57;;;;;;;6.26;61.09;98652.59;10310952;28;20061;-62
2022/02/21 04:15:41;;;;;;;1.38;0.30;;;;;;;6.36;61.36;98668.47;10312126;28;20046;-61
2022/02/21 04:20:42;;;;;;;2.75;0.30;;;;;;;6.13;61.23;98652.00;10319180;28;20046;-59
2022/02/21 04:25:45;;;;;;;1.20;0.50;;;;;;;6.09;61.56;98656.69;10312332;28;20053;-62
2022/02/21 04:30:46;;;;;;;2.97;0.68;;;;;;;5.99;63.06;98656.69;10312688;28;20523;-61
2022/02/21 04:35:47;;;;;;;3.15;0.73;;;;;;;5.95;63.30;98649.97;10313404;28;20060;-63
2022/02/21 04:40:49;;;;;;;4.18;1.10;;;;;;;5.98;63.70;98660.28;10314810;28;20038;-63
2022/02/21 04:45:54;;;;;;;2.45;0.60;;;;;;;5.91;64.54;98690.81;10314012;28;20057;-62
2022/02/21 04:50:56;;;;;;;2.30;0.73;;;;;;;5.94;65.31;98698.47;10312664;28;20184;-61
2022/02/21 04:55:57;;;;;;;2.22;0.40;;;;;;;5.97;64.49;98710.59;10308775;28;20127;-61
2022/02/21 05:00:59;;;;;;;2.85;0.75;;;;;;;5.93;64.26;98717.94;10308319;28;20046;-62
2022/02/21 05:06:00;;;;;;;4.07;0.70;;;;;;;5.99;64.52;98725.34;10307928;28;20058;-62
2022/02/21 05:11:02;;;;;;;4.85;0.82;;;;;;;5.90;64.26;98718.19;10315007;28;22295;-62
2022/02/21 05:16:04;;;;;;;3.63;0.68;;;;;;;5.92;62.64;98745.31;10310769;28;20055;-61
2022/02/21 05:21:05;;;;;;;2.05;0.70;;;;;;;5.63;63.37;98738.06;10310743;28;20133;-61
2022/02/21 05:26:08;;;;;;;2.25;0.50;;;;;;;5.52;65.19;98764.50;10310613;28;20045;-61
2022/02/21 05:31:09;;;;;;;2.92;0.98;;;;;;;5.44;65.99;98773.06;10311150;28;20768;-62
2022/02/21 05:36:10;;;;;;;3.95;1.02;;;;;;;5.39;65.78;98775.25;10309750;28;20046;-62
2022/02/21 05:41:12;;;;;;;6.40;1.00;;;;;;;5.29;66.52;98771.69;10314986;28;20049;-62
2022/02/21 05:46:13;;;;;;;5.68;1.10;;;;;;;5.35;66.88;98770.34;10311288;28;20059;-62
2022/02/21 05:51:15;;;;;;;4.72;0.90;;;;;;;5.38;66.30;98772.75;10309835;28;21118;-62
2022/02/21 05:56:16;;;;;;;2.85;1.00;;;;;;;5.48;66.17;98798.25;10303873;28;20515;-64
2022/02/21 06:01:18;;;;;;;3.25;1.55;;;;;;;5.49;65.27;98821.03;10297290;28;20126;-66
2022/02/21 06:06:19;;;;;;;7.85;2.47;;;;;;;5.34;66.57;98813.53;10307948;28;20054;-65
2022/02/21 06:11:21;;;;;;;4.40;1.60;;;;;;;5.09;65.13;98778.59;10317165;28;20133;-65
2022/02/21 06:16:23;;;;;;;6.25;1.45;;;;;;;5.36;67.14;98822.16;10321628;28;20054;-64
2022/02/21 06:21:24;;;;;;;3.78;1.83;;;;;;;5.31;64.63;98818.09;10316595;28;20046;-65
2022/02/21 06:26:25;;;;;;;5.90;1.83;;;;;;;5.34;63.12;98829.38;10309949;28;20111;-66
2022/02/21 06:31:27;;;;;;;4.22;1.30;;;;;;;5.39;60.60;98808.69;10309519;28;20058;-65
2022/02/21 06:36:28;;;;;;;7.22;2.15;;;;;;;5.45;58.33;98800.28;10311737;28;20124;-66
2022/02/21 06:41:31;;;;;;;5.60;1.95;;;;;;;5.51;57.44;98813.00;10303095;28;20050;-63
2022/02/21 06:46:32;;;;;;;6.07;1.90;;;;;;;5.82;56.45;98823.63;10322607;28;20643;-66
2022/02/21 06:51:37;;;;;;;7.18;2.05;;;;;;;5.83;55.10;98809.47;10325508;28;20046;-63
2022/02/21 06:56:38;;;;;;;9.02;2.13;;;;;;;5.87;56.17;98824.09;10316254;28;20042;-62
2022/02/21 07:01:39;;;;;;;6.32;2.20;;;;;;;5.93;56.23;98831.50;10303836;28;20057;-63
2022/02/21 07:06:41;;;;;;;6.45;2.00;;;;;;;6.42;59.22;98821.22;10314713;28;20060;-64
2022/02/21 07:11:42;;;;;;;4.88;1.77;;;;;;;6.68;57.52;98842.78;10312490;28;20058;-60
2022/02/21 07:16:44;;;;;;;6.38;2.58;;;;;;;6.72;53.71;98853.91;10306930;28;20058;-64
2022/02/21 07:21:45;;;;;;;8.18;1.98;;;;;;;6.63;54.45;98852.91;10308089;28;20046;-65
2022/02/21 07:26:46;;;;;;;7.55;1.80;;;;;;;6.53;54.67;98855.53;10321884;28;20076;-63
2022/02/21 07:31:49;;;;;;;8.65;2.05;;;;;;;6.55;55.52;98890.59;10308025;28;20042;-61
2022/02/21 07:36:50;;;;;;;6.00;1.67;;;;;;;6.41;56.37;98885.66;10324967;28;20576;-61
2022/02/21 07:41:51;;;;;;;4.45;1.40;;;;;;;5.97;58.17;98885.75;10309093;28;21293;-61
2022/02/21 07:46:53;;;;;;;2.88;0.60;;;;;;;5.86;60.31;98946.53;10307296;28;20046;-63
2022/02/21 07:51:54;;;;;;;2.03;0.40;;;;;;;5.57;62.35;98918.06;10307648;28;20078;-60
2022/02/21 07:57:00;;;;;;;2.83;0.43;;;;;;;5.91;63.25;98932.97;10306975;28;20046;-62
2022/02/21 08:02:03;;;;;;;3.47;0.85;;;;;;;6.26;62.26;98958.28;10304525;28;20119;-61
2022/02/21 08:07:04;;;;;;;3.53;1.20;;;;;;;6.30;62.49;98933.28;10309177;28;20054;-61
2022/02/21 08:12:07;;;;;;;3.83;1.33;;;;;;;6.27;63.07;98958.16;10313873;28;20053;-65
2022/02/21 08:17:08;;;;;;;5.00;1.25;;;;;;;6.07;63.44;98943.13;10315230;28;20046;-62
2022/02/21 08:22:10;;;;;;;9.35;1.88;;;;;;;6.17;63.37;98941.38;10304181;28;20058;-61
2022/02/21 08:27:11;;;;;;;7.03;2.42;;;;;;;6.04;63.06;98917.81;10315797;28;20053;-61
2022/02/21 08:32:12;;;;;;;8.80;2.03;;;;;;;5.96;64.55;98947.47;10340479;28;20050;-63
2022/02/21 08:37:14;;;;;;;6.78;2.17;;;;;;;6.32;64.22;98940.13;10342166;28;20446;-62
2022/02/21 08:42:16;;;;;;;6.88;1.73;;;;;;;6.44;63.64;98918.91;10328204;28;20053;-66
2022/02/21 08:47:17;;;;;;;5.35;1.88;;;;;;;6.57;63.73;98918.72;10305418;28;20845;-62
2022/02/21 08:52:19;;;;;;;7.22;2.05;;;;;;;6.98;62.36;98922.22;10304218;28;20229;-63
2022/02/21 08:57:20;;;;;;;2.58;1.10;;;;;;;7.16;61.73;98927.72;10312734;28;21012;-61
2022/02/21 09:02:21;;;;;;;4.07;1.75;;;;;;;7.59;61.08;98939.84;10301778;28;20045;-60
2022/02/21 09:07:43;;;;;;;2.08;0.80;;;;;;;7.59;60.02;98931.88;10310908;28;20053;-62
2022/02/21 09:12:44;;;;;;;1.73;0.70;;;;;;;7.50;59.59;98961.84;10305461;28;20843;-61
2022/02/21 09:17:46;;;;;;;3.08;0.80;;;;;;;7.88;59.23;98926.63;10308247;28;20144;-59
2022/02/21 09:22:48;;;;;;;4.20;0.82;;;;;;;8.48;56.41;98934.44;10300367;28;20467;-61
2022/02/21 09:27:51;;;;;;;5.38;0.73;;;;;;;8.69;54.51;98933.41;10301312;28;20046;-61
2022/02/21 09:32:52;;;;;;;4.75;1.50;;;;;;;8.24;54.23;98926.06;10301908;28;20124;-63
2022/02/21 09:37:53;;;;;;;3.97;0.93;;;;;;;8.70;53.87;98911.22;10312952;28;20519;-60
2022/02/21 09:42:59;;;;;;;5.63;1.75;;;;;;;9.09;52.51;98916.38;10316164;28;20159;-62
2022/02/21 09:48:01;;;;;;;3.25;1.45;;;;;;;9.38;49.95;98950.75;10314982;28;21202;-60
2022/02/21 09:53:09;;;;;;;4.18;1.20;;;;;;;9.28;50.35;98936.69;10308916;28;20064;-60
2022/02/21 09:58:11;;;;;;;5.50;1.60;;;;;;;8.77;50.59;98938.84;10312173;28;20061;-60
2022/02/21 10:03:16;;;;;;;5.47;1.63;;;;;;;9.17;49.96;98943.03;10317167;28;20049;-61
2022/02/21 10:08:18;;;;;;;5.93;1.42;;;;;;;10.05;46.29;98929.19;10308296;28;20589;-61
2022/02/21 10:13:19;;;;;;;5.65;1.60;;;;;;;11.31;42.63;98920.84;10314200;28;20763;-60
2022/02/21 10:18:23;;;;;;;6.18;1.10;;;;;;;12.50;38.86;98926.06;10311056;28;20049;-61
2022/02/21 10:23:35;;;;;;;5.13;1.35;;;;;;;11.51;41.71;98931.25;10322360;28;20069;-61
2022/02/21 10:28:39;;;;;;;3.47;1.35;;;;;;;11.90;39.60;98925.34;10315517;28;21556;-61
2022/02/21 10:33:49;;;;;;;4.43;1.30;;;;;;;10.60;42.12;98948.63;10316238;28;20045;-63
2022/02/21 10:38:53;;;;;;;3.90;1.30;;;;;;;9.27;45.28;98958.91;10326004;28;20896;-61
2022/02/21 10:43:55;;;;;;;;;;;;;;;9.04;47.20;98971.72;10315998;28;20081;-61
2022/02/21 10:49:02;;;;;;;4.45;1.00;;;;;;;8.49;48.09;98967.91;10316087;28;20019;-61
2022/02/21 10:54:10;;;;;;;3.67;1.02;;;;;;;8.38;48.36;98980.50;10313831;28;20082;-61
2022/02/21 10:59:21;;;;;;;4.55;1.42;;;;;;;7.88;49.51;98953.13;10310536;28;20136;-62
2022/02/21 11:04:24;;;;;;;4.43;1.52;;;;;;;8.16;49.40;98976.31;10316114;28;20504;-60
2022/02/21 11:09:27;;;;;;;2.33;0.80;;;;;;;7.96;49.45;98974.47;10317622;28;20530;-61
2022/02/21 11:14:30;;;;;;;2.58;0.75;;;;;;;10.33;43.29;98949.50;10312958;28;20050;-61
2022/02/21 11:19:32;;;;;;;4.13;0.90;;;;;;;9.81;42.75;98937.75;10315580;28;20447;-61
2022/02/21 11:24:38;;;;;;;3.05;0.82;;;;;;;11.76;38.83;98916.16;10309313;28;20160;-61
2022/02/21 11:30:00;;;;;;;2.53;0.65;;;;;;;12.42;37.06;98915.41;10311910;28;20136;-61
2022/02/21 11:35:19;;;;;;;7.85;1.02;;;;;;;9.44;43.37;98920.09;10316112;28;20049;-62
2022/02/21 11:40:20;;;;;;;3.33;0.80;;;;;;;8.63;45.49;98894.19;10307868;28;20057;-61
2022/02/21 11:45:29;;;;;;;4.88;1.38;;;;;;;8.60;46.34;98899.78;10312353;28;20046;-61
2022/02/21 11:50:31;;;;;;;5.03;0.90;;;;;;;9.38;45.45;98904.75;10308173;28;20397;-61
2022/02/21 11:55:40;;;;;;;2.65;0.70;;;;;;;10.51;42.83;98875.88;10307890;28;20164;-61
2022/02/21 12:00:49;;;;;;;7.05;1.17;;;;;;;13.39;37.58;98864.53;10317821;28;20068;-61
2022/02/21 12:05:56;;;;;;;3.45;1.20;;;;;;;10.46;43.93;98874.66;10309854;28;20394;-61
2022/02/21 12:11:19;;;;;;;2.85;1.00;;;;;;;9.15;46.77;98852.06;10312204;28;20136;-61
2022/02/21 12:16:23;;;;;;;2.65;0.90;;;;;;;8.85;47.47;98834.63;10303454;28;20176;-60
2022/02/21 12:21:28;;;;;;;4.03;0.88;;;;;;;8.24;49.51;98820.03;10305435;28;20060;-60
2022/02/21 12:26:39;;;;;;;4.75;1.20;;;;;;;7.99;50.22;98797.59;10310530;28;20045;-60
2022/02/21 12:31:43;;;;;;;2.60;0.80;;;;;;;8.02;51.37;98797.34;10304600;28;20165;-61
2022/02/21 12:36:48;;;;;;;5.53;1.30;;;;;;;8.22;51.41;98784.88;10311806;28;20669;-61
2022/02/21 12:41:53;;;;;;;3.60;0.80;;;;;;;8.21;51.59;98767.28;10308377;28;20133;-61
2022/02/21 12:47:01;;;;;;;2.95;0.90;;;;;;;8.14;52.39;98757.28;10308438;28;20120;-61
2022/02/21 12:52:07;;;;;;;2.47;0.80;;;;;;;8.11;54.38;98770.00;10310196;28;20122;-60
2022/02/21 12:57:08;;;;;;;4.05;0.98;;;;;;;8.03;55.37;98760.09;10315940;28;20046;-63
2022/02/21 13:02:13;;;;;;;3.10;0.93;;;;;;;7.85;56.71;98745.91;10310494;28;20166;-60
2022/02/21 13:07:15;;;;;;;5.85;0.95;;;;;;;7.91;56.82;98761.22;10312583;28;20054;-60
2022/02/21 13:12:19;;;;;;;2.70;0.70;;;;;;;7.91;57.32;98734.75;10306651;28;20053;-61
2022/02/21 13:17:21;;;;;;;2.15;0.70;;;;;;;7.88;58.15;98729.72;10315156;28;20117;-61
2022/02/21 13:22:28;;;;;;;4.63;1.63;;;;;;;7.72;59.29;98733.81;10308525;28;20063;-61
2022/02/21 13:27:37;;;;;;;1.73;0.80;;;;;;;7.53;61.71;98739.97;10306277;28;20498;-60
2022/02/21 13:32:42;;;;;;;3.10;0.90;;;;;;;7.60;63.00;98721.72;10309222;28;20097;-64
2022/02/21 13:37:45;;;;;;;;;;;;;;;7.65;62.94;98714.16;10309835;28;21039;-63
2022/02/21 13:42:59;;;;;;;2.08;0.77;;;;;;;7.65;63.59;98719.47;10306920;28;19939;-61
2022/02/21 13:48:08;;;;;;;4.10;1.23;;;;;;;7.56;64.54;98707.09;10310619;28;20524;-61
2022/02/21 13:53:12;;;;;;;3.95;1.60;;;;;;;7.53;64.25;98708.19;10309936;28;20511;-63
2022/02/21 13:58:14;;;;;;;2.67;0.73;;;;;;;7.42;64.32;98697.78;10307202;28;20046;-61
2022/02/21 14:03:20;;;;;;;3.33;1.00;;;;;;;7.39;67.03;98690.94;10302992;28;20530;-62
2022/02/21 14:08:35;;;;;;;5.65;1.27;;;;;;;7.25;69.65;98697.50;10311595;28;20503;-61
2022/02/21 14:13:48;;;;;;;3.75;1.00;;;;;;;6.91;72.53;98649.47;10310669;28;20631;-62
2022/02/21 14:18:50;;;;;;;5.03;1.77;;;;;;;7.02;75.36;98689.00;10307896;28;20141;-61
2022/02/21 14:23:51;;;;;;;3.30;0.77;;;;;;;6.65;77.49;98668.53;10307153;28;20060;-61
2022/02/21 14:28:53;;;;;;;2.95;1.00;;;;;;;6.54;80.73;98681.84;10319734;28;21942;-60
2022/02/21 14:33:54;;;;;;;3.05;0.80;;;;;;;6.48;80.00;98671.84;10318819;28;20265;-61
2022/02/21 14:39:01;;;;;;;4.65;1.10;;;;;;;6.62;79.73;98636.22;10311944;28;20058;-63
2022/02/21 14:44:05;;;;;;;3.08;0.93;;;;;;;6.39;80.81;98657.63;10313706;28;20058;-62
2022/02/21 14:49:07;;;;;;;3.65;1.25;;;;;;;6.50;81.20;98683.09;10320257;28;20048;-62
2022/02/21 14:54:08;;;;;;;2.80;1.20;;;;;;;6.64;78.38;98666.84;10309997;28;20083;-62
2022/02/21 14:59:09;;;;;;;4.32;1.00;;;;;;;11.00;64.58;98666.78;10311646;28;20056;-62
2022/02/21 15:04:11;;;;;;;4.40;1.20;;;;;;;8.97;68.01;98668.06;10314546;28;20062;-62
2022/02/21 15:09:13;;;;;;;3.25;0.70;;;;;;;8.16;71.52;98674.13;10307998;28;20104;-62
2022/02/21 15:14:14;;;;;;;2.17;0.75;;;;;;;7.52;72.11;98687.16;10308736;28;20076;-62
2022/02/21 15:19:16;;;;;;;3.75;0.75;;;;;;;7.11;74.92;98684.69;10309169;28;20064;-63
2022/02/21 15:24:17;;;;;;;2.58;0.90;;;;;;;6.93;75.59;98671.31;10317019;28;20160;-62
2022/02/21 15:29:18;;;;;;;2.05;1.08;;;;;;;6.74;76.73;98677.47;10311452;28;20050;-61
2022/02/21 15:34:21;;;;;;;4.53;0.63;;;;;;;6.65;78.64;98684.41;10315493;28;20054;-63
2022/02/21 15:39:22;;;;;;;4.35;0.90;;;;;;;6.50;80.09;98680.44;10305785;28;20505;-63
2022/02/21 15:44:24;;;;;;;1.88;0.80;;;;;;;6.48;79.84;98655.97;10309687;28;20552;-62
2022/02/21 15:49:27;;;;;;;3.53;0.88;;;;;;;6.64;80.51;98671.31;10317577;28;20199;-65
2022/02/21 15:54:29;;;;;;;2.22;0.70;;;;;;;6.68;80.67;98681.47;10315899;28;20068;-62
2022/02/21 15:59:30;;;;;;;1.73;0.43;;;;;;;6.61;80.62;98661.84;10312418;28;20406;-62
2022/02/21 16:04:32;;;;;;;2.03;0.70;;;;;;;6.78;81.10;98672.72;10310935;28;20152;-62
2022/02/21 16:09:34;;;;;;;1.50;0.25;;;;;;;6.87;81.23;98698.34;10310804;28;20118;-61
2022/02/21 16:14:36;;;;;;;3.17;0.57;;;;;;;6.76;80.10;98706.41;10314970;28;20128;-61
2022/02/21 16:19:37;;;;;;;1.98;0.60;;;;;;;6.65;79.74;98705.56;10314677;28;20060;-63
2022/02/21 16:24:39;;;;;;;1.77;0.40;;;;;;;6.50;80.46;98696.31;10301419;28;20053;-62
2022/02/21 16:29:40;;;;;;;1.40;0.40;;;;;;;6.77;80.17;98730.06;10308235;28;20108;-61
2022/02/21 16:34:42;;;;;;;2.13;0.40;;;;;;;6.85;80.34;98748.72;10309326;28;20049;-62
2022/02/21 16:39:43;;;;;;;1.58;0.63;;;;;;;6.82;80.61;98732.31;10314428;28;20060;-62
2022/02/21 16:44:46;;;;;;;2.38;0.57;;;;;;;6.73;80.40;98763.88;10305222;28;20149;-63
2022/02/21 16:49:52;;;;;;;1.92;0.57;;;;;;;6.86;81.11;98791.88;10306215;28;20666;-61
2022/02/21 16:54:54;;;;;;;1.65;0.60;;;;;;;6.85;82.10;98814.84;10314226;28;21741;-61
2022/02/21 16:59:55;;;;;;;1.35;0.60;;;;;;;7.01;81.70;98835.50;10307969;28;20092;-61
2022/02/21 17:04:57;;;;;;;1.73;0.65;;;;;;;6.99;81.68;98840.09;10308241;28;20477;-63
2022/02/21 17:10:02;;;;;;;2.72;0.90;;;;;;;6.71;82.20;98821.38;10310297;28;20057;-62
2022/02/21 17:15:05;;;;;;;1.42;0.63;;;;;;;6.97;81.46;98857.09;10305679;28;20723;-62
2022/02/21 17:20:08;;;;;;;5.10;0.80;;;;;;;6.77;80.33;98857.03;10313779;28;20042;-64
2022/02/21 17:25:10;;;;;;;3.35;0.57;;;;;;;6.86;77.81;98881.81;10310012;28;20062;-64
2022/02/21 17:30:12;;;;;;;3.70;0.90;;;;;;;6.71;77.20;98894.56;10309261;28;20060;-64
2022/02/21 17:35:13;;;;;;;3.17;0.75;;;;;;;6.49;77.88;98908.78;10302867;28;20053;-62
2022/02/21 17:40:15;;;;;;;4.30;1.25;;;;;;;6.42;77.11;98915.56;10310640;28;20547;-62
2022/02/21 17:45:16;;;;;;;3.22;0.75;;;;;;;6.56;76.87;98944.31;10301243;28;20050;-62
2022/02/21 17:50:17;;;;;;;5.18;1.77;;;;;;;6.53;74.97;98981.56;10307121;28;20101;-64
2022/02/21 17:55:19;;;;;;;3.60;1.23;;;;;;;6.54;72.93;99012.34;10320210;28;20501;-63
2022/02/21 18:00:20;;;;;;;3.83;1.55;;;;;;;6.55;73.21;99037.81;10316826;28;20060;-62
2022/02/21 18:05:24;;;;;;;5.05;1.88;;;;;;;6.51;72.59;99037.22;10313986;28;20496;-62
2022/02/21 18:10:26;;;;;;;9.27;2.67;;;;;;;6.61;70.78;99074.31;10307161;28;20141;-64
2022/02/21 18:15:28;;;;;;;7.50;2.50;;;;;;;6.61;71.52;99115.81;10312561;28;20057;-63
2022/02/21 18:20:30;;;;;;;9.93;2.78;;;;;;;6.67;70.49;99137.28;10314066;28;21002;-62
2022/02/21 18:25:32;;;;;;;4.18;1.80;;;;;;;6.67;70.94;99153.16;10313831;28;20425;-62
2022/02/21 18:30:35;;;;;;;5.40;1.73;;;;;;;6.66;70.56;99185.84;10313256;28;20050;-64
2022/02/21 18:35:36;;;;;;;6.60;2.42;;;;;;;6.68;69.26;99210.38;10309340;28;20645;-63
2022/02/21 18:40:38;;;;;;;4.55;1.60;;;;;;;6.64;69.48;99251.25;10321807;28;20046;-63
2022/02/21 18:45:40;;;;;;;6.93;2.33;;;;;;;6.47;68.79;99226.16;10315545;28;20184;-62
2022/02/21 18:50:42;;;;;;;4.65;1.98;;;;;;;6.64;68.39;99274.22;10315653;28;20232;-62
2022/02/21 18:55:43;;;;;;;5.28;1.63;;;;;;;6.76;67.98;99282.97;10329604;28;20133;-63
2022/02/21 19:00:45;;;;;;;6.50;2.00;;;;;;;6.73;67.61;99308.69;10310542;28;20104;-63
2022/02/21 19:05:47;;;;;;;6.75;2.03;;;;;;;6.73;67.34;99318.44;10313861;28;20072;-63
2022/02/21 19:10:50;;;;;;;6.15;2.08;;;;;;;6.73;68.43;99353.66;10320935;28;20108;-62
2022/02/21 19:15:53;;;;;;;4.30;1.63;;;;;;;6.76;70.16;99364.97;10310168;28;20049;-61
2022/02/21 19:20:54;;;;;;;2.03;1.20;;;;;;;6.35;72.26;99365.44;10319539;28;20674;-62
2022/02/21 19:25:59;;;;;;;3.58;1.40;;;;;;;6.35;72.74;99397.16;10301407;28;20524;-63
2022/02/21 19:31:04;;;;;;;4.40;1.50;;;;;;;6.26;73.20;99426.94;10319941;28;20050;-63
2022/02/21 19:36:05;;;;;;;4.97;2.03;;;;;;;6.30;72.12;99419.59;10311566;28;20428;-64
2022/02/21 19:41:07;;;;;;;4.90;1.55;;;;;;;6.26;68.98;99440.16;10307390;28;20060;-63
2022/02/21 19:46:09;;;;;;;6.13;3.15;;;;;;;6.14;69.55;99431.34;10317990;28;20053;-64
2022/02/21 19:51:12;;;;;;;4.35;1.70;;;;;;;6.20;68.74;99453.81;10313492;28;20056;-62
2022/02/21 19:56:16;;;;;;;5.95;1.25;;;;;;;6.30;68.69;99481.22;10317712;28;20053;-62
2022/02/21 20:01:17;;;;;;;4.53;1.92;;;;;;;6.27;68.94;99489.38;10314946;28;20073;-63
2022/02/21 20:06:19;;;;;;;4.78;2.05;;;;;;;6.27;69.05;99499.94;10312663;28;20049;-62
2022/02/21 20:11:20;;;;;;;4.70;1.35;;;;;;;6.20;68.90;99514.59;10343581;28;20060;-62
2022/02/21 20:16:22;;;;;;;4.38;1.52;;;;;;;6.25;69.12;99512.44;10339100;28;20056;-62
2022/02/21 20:21:23;;;;;;;5.07;1.30;;;;;;;6.28;69.32;99533.38;10337894;28;20045;-63
2022/02/21 20:26:25;;;;;;;6.53;1.88;;;;;;;6.34;69.88;99543.47;10345639;28;20076;-64
2022/02/21 20:31:29;;;;;;;6.75;1.77;;;;;;;6.26;69.62;99534.44;10357463;28;21564;-62
2022/02/21 20:36:34;;;;;;;7.97;1.63;;;;;;;6.49;69.77;99577.69;10356642;28;20088;-63
2022/02/21 20:41:35;;;;;;;3.83;1.63;;;;;;;6.48;69.74;99570.69;10342085;28;20472;-62
2022/02/21 20:46:37;;;;;;;6.43;1.92;;;;;;;6.49;69.71;99594.38;10341593;28;20064;-63
2022/02/21 20:51:38;;;;;;;5.15;1.38;;;;;;;6.40;69.77;99592.41;10347180;28;20049;-64
2022/02/21 20:56:40;;;;;;;5.05;1.05;;;;;;;6.33;70.85;99584.06;10339601;28;20099;-64
2022/02/21 21:01:41;;;;;;;3.40;1.00;;;;;;;6.48;70.89;99591.84;10320494;28;20096;-64
2022/02/21 21:06:43;;;;;;;4.15;1.80;;;;;;;6.73;70.67;99622.63;10306253;28;20046;-64
2022/02/21 21:11:44;;;;;;;4.45;1.13;;;;;;;6.61;70.21;99634.94;10315451;28;20442;-63
2022/02/21 21:16:46;;;;;;;6.97;1.30;;;;;;;6.61;70.09;99619.06;10306734;28;20160;-63
2022/02/21 21:21:48;;;;;;;4.28;1.27;;;;;;;6.77;69.67;99639.94;10311602;28;20053;-64
2022/02/21 21:26:50;;;;;;;6.13;1.00;;;;;;;6.82;69.36;99631.66;10304928;28;20110;-64
2022/02/21 21:31:51;;;;;;;4.97;1.38;;;;;;;6.99;69.21;99633.88;10301495;28;20148;-62
2022/02/21 21:36:53;;;;;;;6.18;1.60;;;;;;;7.02;68.36;99635.44;10303021;28;20432;-62
2022/02/21 21:41:54;;;;;;;6.85;1.63;;;;;;;6.84;67.98;99637.69;10298190;28;20054;-61
2022/02/21 21:46:56;;;;;;;4.53;1.13;;;;;;;6.82;67.87;99653.66;10310946;28;20556;-62
2022/02/21 21:51:57;;;;;;;3.63;1.25;;;;;;;6.85;68.29;99663.19;10310619;28;20052;-63
2022/02/21 21:56:59;;;;;;;6.90;1.60;;;;;;;6.95;67.97;99672.13;10310464;28;20457;-62
2022/02/21 22:02:00;;;;;;;5.47;1.63;;;;;;;7.16;67.50;99709.38;10310710;28;20703;-63
2022/02/21 22:07:02;;;;;;;5.50;1.23;;;;;;;7.14;67.58;99734.25;10310714;28;20062;-62
2022/02/21 22:12:04;;;;;;;5.38;1.15;;;;;;;7.21;67.49;99761.97;10327433;28;20149;-62
2022/02/21 22:17:05;;;;;;;5.20;1.70;;;;;;;7.13;68.11;99757.25;10308927;28;20060;-61
2022/02/21 22:22:06;;;;;;;4.03;0.93;;;;;;;7.11;68.17;99750.38;10312766;28;20604;-63
2022/02/21 22:27:08;;;;;;;5.32;0.98;;;;;;;7.04;69.76;99789.66;10309169;28;20054;-62
2022/02/21 22:32:10;;;;;;;3.83;1.20;;;;;;;7.04;70.68;99801.13;10312371;28;20047;-61
2022/02/21 22:37:11;;;;;;;3.95;1.08;;;;;;;7.00;70.61;99783.75;10307761;28;20140;-62
2022/02/21 22:42:13;;;;;;;3.85;0.73;;;;;;;7.09;70.18;99808.72;10314800;28;20125;-63
2022/02/21 22:47:14;;;;;;;2.30;0.90;;;;;;;7.02;69.77;99828.63;10312963;28;20069;-62
2022/02/21 22:52:15;;;;;;;2.55;0.65;;;;;;;6.95;70.41;99830.91;10317540;28;20056;-62
2022/02/21 22:57:17;;;;;;;2.42;0.73;;;;;;;6.98;70.60;99859.78;10315561;28;20141;-62
2022/02/21 23:02:19;;;;;;;5.63;1.75;;;;;;;6.98;70.16;99853.63;10316324;28;20053;-61
2022/02/21 23:12:40;;;;;;;2.92;0.75;;;;;;;6.94;69.73;99865.41;10313773;28;20204;-62
2022/02/21 23:17:41;;;;;;;4.07;0.93;;;;;;;7.02;69.44;99871.81;10318304;28;20562;-62
2022/02/21 23:22:43;;;;;;;6.72;1.63;;;;;;;6.97;69.68;99889.00;10318543;28;21030;-62
2022/02/21 23:27:45;;;;;;;5.07;1.60;;;;;;;7.11;69.07;99874.78;10312626;28;20054;-62
2022/02/21 23:32:46;;;;;;;5.07;1.75;;;;;;;7.14;69.00;99885.13;10313873;28;20085;-62
2022/02/21 23:37:47;;;;;;;5.03;1.40;;;;;;;7.21;69.92;99878.44;10312841;28;20277;-62
2022/02/21 23:42:49;;;;;;;2.25;1.05;;;;;;;6.99;70.14;99887.91;10312286;28;20048;-63
2022/02/21 23:47:50;;;;;;;4.97;2.38;;;;;;;6.87;70.35;99910.78;10315018;28;20053;-62
2022/02/21 23:52:52;;;;;;;5.05;1.50;;;;;;;6.94;69.83;99908.56;10311918;28;20077;-62